sensor_id;sensor_type;location;lat;lon;timestamp;P1;durP1;ratioP1;P2;durP2;ratioP2
4533;SDS011;2279;51.448;7.306;2023-02-15T00:01:14;26.90;;;15.40;;
4533;SDS011;2279;51.448;7.306;2023-02-15T00:03:40;27.00;;;14.87;;
4533;SDS011;2279;51.448;7.306;2023-02-15T00:06:06;25.13;;;15.30;;
4533;SDS011;2279;51.448;7.306;2023-02-15T00:08:32;26.07;;;13.83;;
4533;SDS011;2279;51.448;7.306;2023-02-15T00:11:08;26.93;;;14.47;;
4533;SDS011;2279;51.448;7.306;2023-02-15T00:13:34;24.60;;;15.10;;
4533;SDS011;2279;51.448;7.306;2023-02-15T00:16:01;27.47;;;13.70;;
4533;SDS011;2279;51.448;7.306;2023-02-15T00:18:27;25.83;;;15.10;;
4533;SDS011;2279;51.448;7.306;2023-02-15T00:20:53;28.07;;;15.10;;
4533;SDS011;2279;51.448;7.306;2023-02-15T00:23:19;24.97;;;15.00;;
4533;SDS011;2279;51.448;7.306;2023-02-15T00:25:45;26.33;;;14.37;;
4533;SDS011;2279;51.448;7.306;2023-02-15T00:28:11;26.90;;;14.80;;
4533;SDS011;2279;51.448;7.306;2023-02-15T00:30:37;29.83;;;15.50;;
4533;SDS011;2279;51.448;7.306;2023-02-15T00:33:03;27.63;;;15.00;;
4533;SDS011;2279;51.448;7.306;2023-02-15T00:35:29;25.60;;;14.77;;
4533;SDS011;2279;51.448;7.306;2023-02-15T00:37:55;26.55;;;14.90;;
4533;SDS011;2279;51.448;7.306;2023-02-15T00:40:21;30.85;;;15.68;;
4533;SDS011;2279;51.448;7.306;2023-02-15T00:42:47;24.63;;;15.43;;
4533;SDS011;2279;51.448;7.306;2023-02-15T00:45:13;23.90;;;14.32;;
4533;SDS011;2279;51.448;7.306;2023-02-15T00:47:39;25.70;;;15.50;;
4533;SDS011;2279;51.448;7.306;2023-02-15T00:50:05;24.43;;;14.40;;
4533;SDS011;2279;51.448;7.306;2023-02-15T00:52:32;24.50;;;13.77;;
4533;SDS011;2279;51.448;7.306;2023-02-15T00:54:58;24.80;;;15.03;;
4533;SDS011;2279;51.448;7.306;2023-02-15T00:57:23;29.37;;;15.13;;
4533;SDS011;2279;51.448;7.306;2023-02-15T00:59:49;26.87;;;15.50;;
4533;SDS011;2279;51.448;7.306;2023-02-15T01:02:16;28.90;;;15.20;;
4533;SDS011;2279;51.448;7.306;2023-02-15T01:04:42;23.13;;;13.57;;
4533;SDS011;2279;51.448;7.306;2023-02-15T01:07:08;27.70;;;15.13;;
4533;SDS011;2279;51.448;7.306;2023-02-15T01:09:34;25.63;;;15.40;;
4533;SDS011;2279;51.448;7.306;2023-02-15T01:11:59;25.70;;;14.87;;
4533;SDS011;2279;51.448;7.306;2023-02-15T01:14:25;30.30;;;15.50;;
4533;SDS011;2279;51.448;7.306;2023-02-15T01:16:51;28.80;;;16.43;;
4533;SDS011;2279;51.448;7.306;2023-02-15T01:19:17;26.40;;;15.43;;
4533;SDS011;2279;51.448;7.306;2023-02-15T01:21:43;36.13;;;18.33;;
4533;SDS011;2279;51.448;7.306;2023-02-15T01:24:12;27.33;;;15.97;;
4533;SDS011;2279;51.448;7.306;2023-02-15T01:26:39;28.40;;;16.40;;
4533;SDS011;2279;51.448;7.306;2023-02-15T01:29:05;28.25;;;15.32;;
4533;SDS011;2279;51.448;7.306;2023-02-15T01:31:31;28.97;;;16.53;;
4533;SDS011;2279;51.448;7.306;2023-02-15T01:33:57;33.45;;;16.33;;
4533;SDS011;2279;51.448;7.306;2023-02-15T01:36:22;34.53;;;16.80;;
4533;SDS011;2279;51.448;7.306;2023-02-15T01:38:48;28.50;;;15.47;;
4533;SDS011;2279;51.448;7.306;2023-02-15T01:41:14;27.33;;;15.50;;
4533;SDS011;2279;51.448;7.306;2023-02-15T01:43:57;28.10;;;15.55;;
4533;SDS011;2279;51.448;7.306;2023-02-15T01:46:26;39.92;;;17.63;;
4533;SDS011;2279;51.448;7.306;2023-02-15T01:48:57;26.88;;;15.30;;
4533;SDS011;2279;51.448;7.306;2023-02-15T01:51:24;31.48;;;17.70;;
4533;SDS011;2279;51.448;7.306;2023-02-15T01:54:04;26.33;;;15.35;;
4533;SDS011;2279;51.448;7.306;2023-02-15T01:56:32;30.97;;;16.97;;
4533;SDS011;2279;51.448;7.306;2023-02-15T01:58:59;28.50;;;15.93;;
4533;SDS011;2279;51.448;7.306;2023-02-15T02:01:28;28.77;;;15.80;;
4533;SDS011;2279;51.448;7.306;2023-02-15T02:06:21;28.03;;;16.70;;
4533;SDS011;2279;51.448;7.306;2023-02-15T02:08:47;31.27;;;17.75;;
4533;SDS011;2279;51.448;7.306;2023-02-15T02:11:13;30.80;;;17.38;;
4533;SDS011;2279;51.448;7.306;2023-02-15T02:13:40;28.70;;;16.20;;
4533;SDS011;2279;51.448;7.306;2023-02-15T02:16:16;34.88;;;17.85;;
4533;SDS011;2279;51.448;7.306;2023-02-15T02:31:51;28.65;;;16.13;;
4533;SDS011;2279;51.448;7.306;2023-02-15T02:42:10;31.15;;;16.05;;
4533;SDS011;2279;51.448;7.306;2023-02-15T02:44:42;32.33;;;17.67;;
4533;SDS011;2279;51.448;7.306;2023-02-15T02:47:27;32.47;;;17.58;;
4533;SDS011;2279;51.448;7.306;2023-02-15T02:49:59;27.55;;;16.25;;
4533;SDS011;2279;51.448;7.306;2023-02-15T02:55:01;28.95;;;16.42;;
4533;SDS011;2279;51.448;7.306;2023-02-15T02:57:28;22.27;;;14.27;;
4533;SDS011;2279;51.448;7.306;2023-02-15T02:59:55;29.55;;;17.40;;
4533;SDS011;2279;51.448;7.306;2023-02-15T03:02:24;31.08;;;17.75;;
4533;SDS011;2279;51.448;7.306;2023-02-15T03:04:54;32.00;;;17.30;;
4533;SDS011;2279;51.448;7.306;2023-02-15T03:07:23;36.63;;;18.42;;
4533;SDS011;2279;51.448;7.306;2023-02-15T03:09:53;24.60;;;15.90;;
4533;SDS011;2279;51.448;7.306;2023-02-15T03:12:21;24.70;;;15.60;;
4533;SDS011;2279;51.448;7.306;2023-02-15T03:14:49;27.98;;;17.23;;
4533;SDS011;2279;51.448;7.306;2023-02-15T03:17:16;36.88;;;20.02;;
4533;SDS011;2279;51.448;7.306;2023-02-15T03:19:42;31.23;;;17.17;;
4533;SDS011;2279;51.448;7.306;2023-02-15T03:22:13;30.58;;;18.00;;
4533;SDS011;2279;51.448;7.306;2023-02-15T03:24:47;33.80;;;17.80;;
4533;SDS011;2279;51.448;7.306;2023-02-15T03:27:15;34.65;;;17.02;;
4533;SDS011;2279;51.448;7.306;2023-02-15T03:29:43;30.88;;;16.90;;
4533;SDS011;2279;51.448;7.306;2023-02-15T03:32:09;32.25;;;18.08;;
4533;SDS011;2279;51.448;7.306;2023-02-15T03:34:36;31.80;;;19.48;;
4533;SDS011;2279;51.448;7.306;2023-02-15T03:37:09;34.13;;;16.90;;
4533;SDS011;2279;51.448;7.306;2023-02-15T03:40:38;32.38;;;16.13;;
4533;SDS011;2279;51.448;7.306;2023-02-15T03:42:53;34.58;;;18.35;;
4533;SDS011;2279;51.448;7.306;2023-02-15T03:45:22;30.90;;;16.83;;
4533;SDS011;2279;51.448;7.306;2023-02-15T03:47:50;40.47;;;18.38;;
4533;SDS011;2279;51.448;7.306;2023-02-15T03:50:19;39.17;;;18.88;;
4533;SDS011;2279;51.448;7.306;2023-02-15T03:53:06;33.45;;;19.77;;
4533;SDS011;2279;51.448;7.306;2023-02-15T03:55:34;34.95;;;19.23;;
4533;SDS011;2279;51.448;7.306;2023-02-15T03:58:01;32.65;;;18.05;;
4533;SDS011;2279;51.448;7.306;2023-02-15T04:00:48;33.58;;;18.77;;
4533;SDS011;2279;51.448;7.306;2023-02-15T04:03:42;30.45;;;17.35;;
4533;SDS011;2279;51.448;7.306;2023-02-15T04:06:09;36.63;;;19.73;;
4533;SDS011;2279;51.448;7.306;2023-02-15T04:08:35;33.57;;;17.43;;
4533;SDS011;2279;51.448;7.306;2023-02-15T04:11:20;31.77;;;17.77;;
4533;SDS011;2279;51.448;7.306;2023-02-15T04:13:45;32.80;;;18.20;;
4533;SDS011;2279;51.448;7.306;2023-02-15T04:16:11;28.77;;;17.00;;
4533;SDS011;2279;51.448;7.306;2023-02-15T04:18:41;41.57;;;18.60;;
4533;SDS011;2279;51.448;7.306;2023-02-15T04:21:27;33.88;;;17.00;;
4533;SDS011;2279;51.448;7.306;2023-02-15T04:24:12;35.75;;;19.00;;
4533;SDS011;2279;51.448;7.306;2023-02-15T04:26:57;37.78;;;19.48;;
4533;SDS011;2279;51.448;7.306;2023-02-15T04:29:23;38.65;;;19.27;;
4533;SDS011;2279;51.448;7.306;2023-02-15T04:31:50;31.90;;;16.27;;
4533;SDS011;2279;51.448;7.306;2023-02-15T04:34:16;35.30;;;16.60;;
4533;SDS011;2279;51.448;7.306;2023-02-15T04:36:42;35.72;;;18.25;;
4533;SDS011;2279;51.448;7.306;2023-02-15T04:39:09;33.80;;;17.60;;
4533;SDS011;2279;51.448;7.306;2023-02-15T04:41:35;40.08;;;19.60;;
4533;SDS011;2279;51.448;7.306;2023-02-15T04:44:01;34.58;;;17.95;;
4533;SDS011;2279;51.448;7.306;2023-02-15T04:46:27;35.20;;;17.83;;
4533;SDS011;2279;51.448;7.306;2023-02-15T04:48:53;35.55;;;18.23;;
4533;SDS011;2279;51.448;7.306;2023-02-15T04:51:19;39.25;;;19.30;;
4533;SDS011;2279;51.448;7.306;2023-02-15T04:53:45;32.28;;;18.45;;
4533;SDS011;2279;51.448;7.306;2023-02-15T04:56:11;36.07;;;18.63;;
4533;SDS011;2279;51.448;7.306;2023-02-15T04:58:37;34.73;;;19.90;;
4533;SDS011;2279;51.448;7.306;2023-02-15T05:01:06;38.67;;;18.40;;
4533;SDS011;2279;51.448;7.306;2023-02-15T05:03:32;35.58;;;18.63;;
4533;SDS011;2279;51.448;7.306;2023-02-15T05:05:58;30.60;;;18.10;;
4533;SDS011;2279;51.448;7.306;2023-02-15T05:08:24;32.90;;;18.47;;
4533;SDS011;2279;51.448;7.306;2023-02-15T05:10:50;33.17;;;18.92;;
4533;SDS011;2279;51.448;7.306;2023-02-15T05:13:16;35.30;;;18.60;;
4533;SDS011;2279;51.448;7.306;2023-02-15T05:15:46;31.35;;;17.27;;
4533;SDS011;2279;51.448;7.306;2023-02-15T05:18:12;33.75;;;17.20;;
4533;SDS011;2279;51.448;7.306;2023-02-15T05:20:38;38.90;;;19.55;;
4533;SDS011;2279;51.448;7.306;2023-02-15T05:23:04;33.80;;;19.37;;
4533;SDS011;2279;51.448;7.306;2023-02-15T05:25:30;35.13;;;18.40;;
4533;SDS011;2279;51.448;7.306;2023-02-15T05:28:15;32.35;;;18.45;;
4533;SDS011;2279;51.448;7.306;2023-02-15T05:30:47;32.97;;;18.02;;
4533;SDS011;2279;51.448;7.306;2023-02-15T05:33:14;32.08;;;17.75;;
4533;SDS011;2279;51.448;7.306;2023-02-15T05:35:40;31.42;;;17.60;;
4533;SDS011;2279;51.448;7.306;2023-02-15T05:38:06;38.43;;;18.33;;
4533;SDS011;2279;51.448;7.306;2023-02-15T05:40:31;36.37;;;18.87;;
4533;SDS011;2279;51.448;7.306;2023-02-15T05:42:57;41.13;;;19.30;;
4533;SDS011;2279;51.448;7.306;2023-02-15T05:45:24;38.73;;;19.27;;
4533;SDS011;2279;51.448;7.306;2023-02-15T05:47:50;37.00;;;19.80;;
4533;SDS011;2279;51.448;7.306;2023-02-15T05:50:16;33.13;;;18.77;;
4533;SDS011;2279;51.448;7.306;2023-02-15T05:52:42;44.67;;;20.08;;
4533;SDS011;2279;51.448;7.306;2023-02-15T05:55:08;42.53;;;19.80;;
4533;SDS011;2279;51.448;7.306;2023-02-15T05:57:34;32.42;;;17.35;;
4533;SDS011;2279;51.448;7.306;2023-02-15T06:00:01;35.75;;;17.60;;
4533;SDS011;2279;51.448;7.306;2023-02-15T06:02:29;35.33;;;19.75;;
4533;SDS011;2279;51.448;7.306;2023-02-15T06:04:55;38.28;;;19.00;;
4533;SDS011;2279;51.448;7.306;2023-02-15T06:07:21;37.10;;;18.90;;
4533;SDS011;2279;51.448;7.306;2023-02-15T06:09:47;35.70;;;17.93;;
4533;SDS011;2279;51.448;7.306;2023-02-15T06:12:13;31.63;;;17.90;;
4533;SDS011;2279;51.448;7.306;2023-02-15T06:14:39;36.10;;;20.23;;
4533;SDS011;2279;51.448;7.306;2023-02-15T06:17:04;37.37;;;15.77;;
4533;SDS011;2279;51.448;7.306;2023-02-15T06:19:31;37.63;;;18.10;;
4533;SDS011;2279;51.448;7.306;2023-02-15T06:21:57;39.60;;;18.67;;
4533;SDS011;2279;51.448;7.306;2023-02-15T06:24:23;34.20;;;18.53;;
4533;SDS011;2279;51.448;7.306;2023-02-15T06:26:49;32.00;;;17.63;;
4533;SDS011;2279;51.448;7.306;2023-02-15T06:29:15;33.33;;;18.50;;
4533;SDS011;2279;51.448;7.306;2023-02-15T06:31:41;30.58;;;17.25;;
4533;SDS011;2279;51.448;7.306;2023-02-15T06:34:07;36.50;;;17.90;;
4533;SDS011;2279;51.448;7.306;2023-02-15T06:36:32;38.33;;;18.27;;
4533;SDS011;2279;51.448;7.306;2023-02-15T06:38:58;37.33;;;16.57;;
4533;SDS011;2279;51.448;7.306;2023-02-15T06:41:24;34.53;;;18.25;;
4533;SDS011;2279;51.448;7.306;2023-02-15T06:43:50;33.13;;;16.83;;
4533;SDS011;2279;51.448;7.306;2023-02-15T06:46:16;28.63;;;16.93;;
4533;SDS011;2279;51.448;7.306;2023-02-15T06:48:42;30.60;;;16.83;;
4533;SDS011;2279;51.448;7.306;2023-02-15T06:51:08;35.13;;;18.53;;
4533;SDS011;2279;51.448;7.306;2023-02-15T06:53:34;33.83;;;16.98;;
4533;SDS011;2279;51.448;7.306;2023-02-15T06:56:04;35.15;;;17.95;;
4533;SDS011;2279;51.448;7.306;2023-02-15T06:58:35;32.50;;;15.98;;
4533;SDS011;2279;51.448;7.306;2023-02-15T07:01:01;31.60;;;15.80;;
4533;SDS011;2279;51.448;7.306;2023-02-15T07:03:27;39.73;;;18.50;;
4533;SDS011;2279;51.448;7.306;2023-02-15T07:05:56;30.77;;;17.60;;
4533;SDS011;2279;51.448;7.306;2023-02-15T07:08:23;33.72;;;17.45;;
4533;SDS011;2279;51.448;7.306;2023-02-15T07:10:49;28.33;;;16.95;;
4533;SDS011;2279;51.448;7.306;2023-02-15T07:13:15;34.40;;;17.92;;
4533;SDS011;2279;51.448;7.306;2023-02-15T07:15:41;33.93;;;18.63;;
4533;SDS011;2279;51.448;7.306;2023-02-15T07:18:07;30.43;;;15.90;;
4533;SDS011;2279;51.448;7.306;2023-02-15T07:20:34;35.15;;;17.40;;
4533;SDS011;2279;51.448;7.306;2023-02-15T07:23:00;34.47;;;18.50;;
4533;SDS011;2279;51.448;7.306;2023-02-15T07:25:26;28.92;;;16.38;;
4533;SDS011;2279;51.448;7.306;2023-02-15T07:27:59;33.25;;;17.13;;
4533;SDS011;2279;51.448;7.306;2023-02-15T07:30:25;34.47;;;17.40;;
4533;SDS011;2279;51.448;7.306;2023-02-15T07:32:54;33.85;;;17.20;;
4533;SDS011;2279;51.448;7.306;2023-02-15T07:35:46;31.42;;;16.27;;
4533;SDS011;2279;51.448;7.306;2023-02-15T07:38:12;30.10;;;15.57;;
4533;SDS011;2279;51.448;7.306;2023-02-15T07:40:38;33.10;;;16.47;;
4533;SDS011;2279;51.448;7.306;2023-02-15T07:43:04;34.27;;;17.87;;
4533;SDS011;2279;51.448;7.306;2023-02-15T07:45:30;35.77;;;17.57;;
4533;SDS011;2279;51.448;7.306;2023-02-15T07:47:56;34.57;;;17.70;;
4533;SDS011;2279;51.448;7.306;2023-02-15T07:50:22;27.75;;;16.48;;
4533;SDS011;2279;51.448;7.306;2023-02-15T07:52:48;29.83;;;17.10;;
4533;SDS011;2279;51.448;7.306;2023-02-15T07:55:14;35.53;;;17.47;;
4533;SDS011;2279;51.448;7.306;2023-02-15T07:57:43;37.00;;;16.57;;
4533;SDS011;2279;51.448;7.306;2023-02-15T08:00:10;35.27;;;17.83;;
4533;SDS011;2279;51.448;7.306;2023-02-15T08:02:37;30.30;;;16.40;;
4533;SDS011;2279;51.448;7.306;2023-02-15T08:05:03;26.03;;;14.60;;
4533;SDS011;2279;51.448;7.306;2023-02-15T08:07:29;28.60;;;15.27;;
4533;SDS011;2279;51.448;7.306;2023-02-15T08:09:55;28.00;;;14.57;;
4533;SDS011;2279;51.448;7.306;2023-02-15T08:12:21;31.13;;;16.17;;
4533;SDS011;2279;51.448;7.306;2023-02-15T08:14:47;30.43;;;16.67;;
4533;SDS011;2279;51.448;7.306;2023-02-15T08:17:13;27.77;;;15.10;;
4533;SDS011;2279;51.448;7.306;2023-02-15T08:19:39;29.70;;;15.10;;
4533;SDS011;2279;51.448;7.306;2023-02-15T08:22:06;29.33;;;16.80;;
4533;SDS011;2279;51.448;7.306;2023-02-15T08:24:33;29.20;;;15.30;;
4533;SDS011;2279;51.448;7.306;2023-02-15T08:26:59;27.17;;;14.80;;
4533;SDS011;2279;51.448;7.306;2023-02-15T08:29:27;27.53;;;16.40;;
4533;SDS011;2279;51.448;7.306;2023-02-15T08:31:54;26.40;;;14.60;;
4533;SDS011;2279;51.448;7.306;2023-02-15T08:34:23;27.43;;;15.73;;
4533;SDS011;2279;51.448;7.306;2023-02-15T08:36:49;27.00;;;13.83;;
4533;SDS011;2279;51.448;7.306;2023-02-15T08:39:15;24.40;;;13.77;;
4533;SDS011;2279;51.448;7.306;2023-02-15T08:41:42;28.10;;;15.10;;
4533;SDS011;2279;51.448;7.306;2023-02-15T08:44:09;25.10;;;15.47;;
4533;SDS011;2279;51.448;7.306;2023-02-15T08:46:37;21.33;;;13.47;;
4533;SDS011;2279;51.448;7.306;2023-02-15T08:49:03;22.67;;;15.30;;
4533;SDS011;2279;51.448;7.306;2023-02-15T08:51:30;25.80;;;14.37;;
4533;SDS011;2279;51.448;7.306;2023-02-15T08:53:58;22.53;;;14.13;;
4533;SDS011;2279;51.448;7.306;2023-02-15T08:56:25;36.27;;;14.37;;
4533;SDS011;2279;51.448;7.306;2023-02-15T08:58:52;22.60;;;13.70;;
4533;SDS011;2279;51.448;7.306;2023-02-15T09:01:19;28.53;;;14.53;;
4533;SDS011;2279;51.448;7.306;2023-02-15T09:03:46;28.93;;;14.50;;
4533;SDS011;2279;51.448;7.306;2023-02-15T09:06:13;25.60;;;13.20;;
4533;SDS011;2279;51.448;7.306;2023-02-15T09:08:39;23.73;;;14.43;;
4533;SDS011;2279;51.448;7.306;2023-02-15T09:11:09;20.33;;;12.07;;
4533;SDS011;2279;51.448;7.306;2023-02-15T09:13:36;22.03;;;14.10;;
4533;SDS011;2279;51.448;7.306;2023-02-15T09:16:03;24.00;;;14.07;;
4533;SDS011;2279;51.448;7.306;2023-02-15T09:18:30;20.73;;;13.50;;
4533;SDS011;2279;51.448;7.306;2023-02-15T09:20:56;20.97;;;13.23;;
4533;SDS011;2279;51.448;7.306;2023-02-15T09:23:22;28.07;;;12.97;;
4533;SDS011;2279;51.448;7.306;2023-02-15T09:25:48;19.03;;;13.00;;
4533;SDS011;2279;51.448;7.306;2023-02-15T09:28:14;26.60;;;13.93;;
4533;SDS011;2279;51.448;7.306;2023-02-15T09:30:40;20.13;;;12.10;;
4533;SDS011;2279;51.448;7.306;2023-02-15T09:33:06;21.17;;;13.80;;
4533;SDS011;2279;51.448;7.306;2023-02-15T09:35:32;23.40;;;13.80;;
4533;SDS011;2279;51.448;7.306;2023-02-15T09:37:58;23.37;;;13.80;;
4533;SDS011;2279;51.448;7.306;2023-02-15T09:40:24;20.20;;;14.40;;
4533;SDS011;2279;51.448;7.306;2023-02-15T09:42:54;18.67;;;12.13;;
4533;SDS011;2279;51.448;7.306;2023-02-15T09:45:26;19.87;;;12.53;;
4533;SDS011;2279;51.448;7.306;2023-02-15T09:55:43;19.10;;;12.23;;
4533;SDS011;2279;51.448;7.306;2023-02-15T10:05:44;20.77;;;12.70;;
4533;SDS011;2279;51.448;7.306;2023-02-15T10:10:53;18.77;;;12.70;;
4533;SDS011;2279;51.448;7.306;2023-02-15T10:13:30;15.83;;;12.13;;
4533;SDS011;2279;51.448;7.306;2023-02-15T10:16:05;16.07;;;12.07;;
4533;SDS011;2279;51.448;7.306;2023-02-15T10:26:23;17.70;;;11.30;;
4533;SDS011;2279;51.448;7.306;2023-02-15T10:28:56;17.73;;;11.03;;
4533;SDS011;2279;51.448;7.306;2023-02-15T10:31:26;16.67;;;11.00;;
4533;SDS011;2279;51.448;7.306;2023-02-15T10:34:13;13.20;;;9.90;;
4533;SDS011;2279;51.448;7.306;2023-02-15T10:39:21;19.23;;;10.70;;
4533;SDS011;2279;51.448;7.306;2023-02-15T10:44:58;14.00;;;10.30;;
4533;SDS011;2279;51.448;7.306;2023-02-15T10:50:17;12.80;;;9.13;;
4533;SDS011;2279;51.448;7.306;2023-02-15T11:03:21;12.83;;;9.10;;
4533;SDS011;2279;51.448;7.306;2023-02-15T11:06:05;11.60;;;8.47;;
4533;SDS011;2279;51.448;7.306;2023-02-15T11:08:36;12.37;;;8.53;;
4533;SDS011;2279;51.448;7.306;2023-02-15T11:11:07;10.70;;;8.60;;
4533;SDS011;2279;51.448;7.306;2023-02-15T11:13:38;12.47;;;8.37;;
4533;SDS011;2279;51.448;7.306;2023-02-15T11:16:11;10.20;;;7.70;;
4533;SDS011;2279;51.448;7.306;2023-02-15T11:18:41;13.33;;;9.03;;
4533;SDS011;2279;51.448;7.306;2023-02-15T11:23:47;12.50;;;9.00;;
4533;SDS011;2279;51.448;7.306;2023-02-15T11:26:33;16.17;;;9.23;;
4533;SDS011;2279;51.448;7.306;2023-02-15T11:31:45;10.90;;;8.13;;
4533;SDS011;2279;51.448;7.306;2023-02-15T11:34:29;11.30;;;8.10;;
4533;SDS011;2279;51.448;7.306;2023-02-15T11:36:58;14.97;;;10.13;;
4533;SDS011;2279;51.448;7.306;2023-02-15T11:39:26;11.43;;;8.17;;
4533;SDS011;2279;51.448;7.306;2023-02-15T11:41:55;12.83;;;7.97;;
4533;SDS011;2279;51.448;7.306;2023-02-15T11:44:32;10.97;;;7.60;;
4533;SDS011;2279;51.448;7.306;2023-02-15T11:47:01;10.63;;;7.13;;
4533;SDS011;2279;51.448;7.306;2023-02-15T11:49:31;10.13;;;8.40;;
4533;SDS011;2279;51.448;7.306;2023-02-15T11:51:57;11.00;;;7.50;;
4533;SDS011;2279;51.448;7.306;2023-02-15T11:54:26;12.03;;;7.20;;
4533;SDS011;2279;51.448;7.306;2023-02-15T11:56:54;10.47;;;8.00;;
4533;SDS011;2279;51.448;7.306;2023-02-15T11:59:31;11.00;;;7.47;;
4533;SDS011;2279;51.448;7.306;2023-02-15T12:01:58;10.03;;;7.60;;
4533;SDS011;2279;51.448;7.306;2023-02-15T12:06:54;11.63;;;7.97;;
4533;SDS011;2279;51.448;7.306;2023-02-15T12:14:52;13.37;;;8.40;;
4533;SDS011;2279;51.448;7.306;2023-02-15T12:17:20;9.63;;;6.60;;
4533;SDS011;2279;51.448;7.306;2023-02-15T12:19:46;11.90;;;7.97;;
4533;SDS011;2279;51.448;7.306;2023-02-15T12:22:22;10.60;;;7.20;;
4533;SDS011;2279;51.448;7.306;2023-02-15T12:24:49;13.27;;;8.10;;
4533;SDS011;2279;51.448;7.306;2023-02-15T12:27:17;11.83;;;7.70;;
4533;SDS011;2279;51.448;7.306;2023-02-15T12:32:22;15.73;;;8.47;;
4533;SDS011;2279;51.448;7.306;2023-02-15T12:34:50;9.27;;;7.50;;
4533;SDS011;2279;51.448;7.306;2023-02-15T12:37:17;11.13;;;8.20;;
4533;SDS011;2279;51.448;7.306;2023-02-15T12:39:50;10.33;;;7.70;;
4533;SDS011;2279;51.448;7.306;2023-02-15T12:42:17;10.83;;;8.93;;
4533;SDS011;2279;51.448;7.306;2023-02-15T12:47:22;12.40;;;8.20;;
4533;SDS011;2279;51.448;7.306;2023-02-15T12:50:06;15.77;;;9.17;;
4533;SDS011;2279;51.448;7.306;2023-02-15T12:52:34;12.03;;;7.73;;
4533;SDS011;2279;51.448;7.306;2023-02-15T12:55:10;8.77;;;7.60;;
4533;SDS011;2279;51.448;7.306;2023-02-15T12:57:36;14.57;;;7.60;;
4533;SDS011;2279;51.448;7.306;2023-02-15T13:00:04;11.53;;;8.47;;
4533;SDS011;2279;51.448;7.306;2023-02-15T13:02:34;10.90;;;7.63;;
4533;SDS011;2279;51.448;7.306;2023-02-15T13:05:44;10.23;;;8.07;;
4533;SDS011;2279;51.448;7.306;2023-02-15T13:08:11;11.13;;;7.83;;
4533;SDS011;2279;51.448;7.306;2023-02-15T13:11:25;13.70;;;7.00;;
4533;SDS011;2279;51.448;7.306;2023-02-15T13:13:26;10.43;;;7.10;;
4533;SDS011;2279;51.448;7.306;2023-02-15T13:15:55;12.47;;;7.10;;
4533;SDS011;2279;51.448;7.306;2023-02-15T13:18:31;10.40;;;7.73;;
4533;SDS011;2279;51.448;7.306;2023-02-15T13:21:00;12.60;;;7.40;;
4533;SDS011;2279;51.448;7.306;2023-02-15T13:23:30;9.93;;;7.67;;
4533;SDS011;2279;51.448;7.306;2023-02-15T13:25:58;12.17;;;7.40;;
4533;SDS011;2279;51.448;7.306;2023-02-15T13:28:26;10.73;;;7.37;;
4533;SDS011;2279;51.448;7.306;2023-02-15T13:30:55;12.87;;;8.30;;
4533;SDS011;2279;51.448;7.306;2023-02-15T13:36:00;10.40;;;8.20;;
4533;SDS011;2279;51.448;7.306;2023-02-15T13:38:41;11.17;;;7.63;;
4533;SDS011;2279;51.448;7.306;2023-02-15T13:44:19;14.27;;;8.40;;
4533;SDS011;2279;51.448;7.306;2023-02-15T13:51:58;12.67;;;7.57;;
4533;SDS011;2279;51.448;7.306;2023-02-15T13:57:17;13.30;;;7.20;;
4533;SDS011;2279;51.448;7.306;2023-02-15T14:10:43;11.60;;;7.60;;
4533;SDS011;2279;51.448;7.306;2023-02-15T14:18:38;15.63;;;8.00;;
4533;SDS011;2279;51.448;7.306;2023-02-15T14:23:38;12.83;;;7.90;;
4533;SDS011;2279;51.448;7.306;2023-02-15T14:31:05;11.13;;;6.83;;
4533;SDS011;2279;51.448;7.306;2023-02-15T14:33:35;13.10;;;8.03;;
4533;SDS011;2279;51.448;7.306;2023-02-15T14:36:04;12.43;;;8.30;;
4533;SDS011;2279;51.448;7.306;2023-02-15T14:48:52;15.57;;;8.93;;
4533;SDS011;2279;51.448;7.306;2023-02-15T14:54:03;13.80;;;8.40;;
4533;SDS011;2279;51.448;7.306;2023-02-15T14:56:29;12.07;;;8.13;;
4533;SDS011;2279;51.448;7.306;2023-02-15T14:58:56;13.53;;;8.53;;
4533;SDS011;2279;51.448;7.306;2023-02-15T15:01:27;13.80;;;8.10;;
4533;SDS011;2279;51.448;7.306;2023-02-15T15:03:54;11.70;;;7.63;;
4533;SDS011;2279;51.448;7.306;2023-02-15T15:06:31;12.60;;;8.37;;
4533;SDS011;2279;51.448;7.306;2023-02-15T15:11:45;12.97;;;9.00;;
4533;SDS011;2279;51.448;7.306;2023-02-15T15:14:36;17.50;;;9.13;;
4533;SDS011;2279;51.448;7.306;2023-02-15T15:16:57;15.67;;;9.33;;
4533;SDS011;2279;51.448;7.306;2023-02-15T15:22:16;11.20;;;8.00;;
4533;SDS011;2279;51.448;7.306;2023-02-15T15:29:53;15.20;;;9.87;;
4533;SDS011;2279;51.448;7.306;2023-02-15T15:32:19;18.23;;;9.00;;
4533;SDS011;2279;51.448;7.306;2023-02-15T15:35:06;15.50;;;9.47;;
4533;SDS011;2279;51.448;7.306;2023-02-15T15:37:46;16.00;;;9.27;;
4533;SDS011;2279;51.448;7.306;2023-02-15T15:50:41;19.70;;;8.30;;
4533;SDS011;2279;51.448;7.306;2023-02-15T15:53:13;12.17;;;8.57;;
4533;SDS011;2279;51.448;7.306;2023-02-15T15:55:43;15.87;;;9.63;;
4533;SDS011;2279;51.448;7.306;2023-02-15T15:58:12;20.80;;;10.23;;
4533;SDS011;2279;51.448;7.306;2023-02-15T16:00:44;18.90;;;10.57;;
4533;SDS011;2279;51.448;7.306;2023-02-15T16:03:15;16.10;;;8.50;;
4533;SDS011;2279;51.448;7.306;2023-02-15T16:05:42;12.47;;;8.93;;
4533;SDS011;2279;51.448;7.306;2023-02-15T16:08:07;11.90;;;8.77;;
4533;SDS011;2279;51.448;7.306;2023-02-15T16:10:34;20.50;;;9.60;;
4533;SDS011;2279;51.448;7.306;2023-02-15T16:13:02;16.60;;;9.13;;
4533;SDS011;2279;51.448;7.306;2023-02-15T16:17:56;12.20;;;8.73;;
4533;SDS011;2279;51.448;7.306;2023-02-15T16:20:27;15.83;;;9.83;;
4533;SDS011;2279;51.448;7.306;2023-02-15T16:23:04;12.60;;;8.17;;
4533;SDS011;2279;51.448;7.306;2023-02-15T16:25:35;16.07;;;10.20;;
4533;SDS011;2279;51.448;7.306;2023-02-15T16:28:05;15.60;;;8.90;;
4533;SDS011;2279;51.448;7.306;2023-02-15T16:30:33;17.43;;;9.77;;
4533;SDS011;2279;51.448;7.306;2023-02-15T16:33:03;18.40;;;10.07;;
4533;SDS011;2279;51.448;7.306;2023-02-15T16:35:30;17.73;;;10.30;;
4533;SDS011;2279;51.448;7.306;2023-02-15T16:37:56;18.53;;;10.63;;
4533;SDS011;2279;51.448;7.306;2023-02-15T16:42:48;19.33;;;10.10;;
4533;SDS011;2279;51.448;7.306;2023-02-15T16:45:15;26.73;;;10.00;;
4533;SDS011;2279;51.448;7.306;2023-02-15T16:47:43;15.43;;;9.27;;
4533;SDS011;2279;51.448;7.306;2023-02-15T16:50:31;14.50;;;10.17;;
4533;SDS011;2279;51.448;7.306;2023-02-15T16:52:58;17.03;;;9.40;;
4533;SDS011;2279;51.448;7.306;2023-02-15T16:55:25;21.77;;;10.13;;
4533;SDS011;2279;51.448;7.306;2023-02-15T16:57:53;18.57;;;10.60;;
4533;SDS011;2279;51.448;7.306;2023-02-15T17:00:22;20.23;;;10.37;;
4533;SDS011;2279;51.448;7.306;2023-02-15T17:02:55;14.07;;;8.80;;
4533;SDS011;2279;51.448;7.306;2023-02-15T17:05:24;22.33;;;10.80;;
4533;SDS011;2279;51.448;7.306;2023-02-15T17:10:40;19.23;;;11.53;;
4533;SDS011;2279;51.448;7.306;2023-02-15T17:15:37;21.80;;;10.70;;
4533;SDS011;2279;51.448;7.306;2023-02-15T17:20:29;20.07;;;10.33;;
4533;SDS011;2279;51.448;7.306;2023-02-15T17:22:55;18.93;;;10.53;;
4533;SDS011;2279;51.448;7.306;2023-02-15T17:25:33;21.80;;;10.23;;
4533;SDS011;2279;51.448;7.306;2023-02-15T17:28:01;21.03;;;12.40;;
4533;SDS011;2279;51.448;7.306;2023-02-15T17:30:30;26.40;;;13.73;;
4533;SDS011;2279;51.448;7.306;2023-02-15T17:32:58;22.00;;;12.23;;
4533;SDS011;2279;51.448;7.306;2023-02-15T17:35:26;20.40;;;11.07;;
4533;SDS011;2279;51.448;7.306;2023-02-15T17:38:02;16.37;;;10.03;;
4533;SDS011;2279;51.448;7.306;2023-02-15T17:40:33;14.13;;;10.23;;
4533;SDS011;2279;51.448;7.306;2023-02-15T17:42:59;22.60;;;11.63;;
4533;SDS011;2279;51.448;7.306;2023-02-15T17:45:26;21.43;;;11.83;;
4533;SDS011;2279;51.448;7.306;2023-02-15T17:47:56;19.30;;;11.67;;
4533;SDS011;2279;51.448;7.306;2023-02-15T17:50:24;20.40;;;11.70;;
4533;SDS011;2279;51.448;7.306;2023-02-15T17:52:51;18.37;;;11.10;;
4533;SDS011;2279;51.448;7.306;2023-02-15T17:55:18;22.20;;;12.00;;